createdAt,value
2022-11-20T00:03:32.531Z,97492.34
2022-11-20T00:08:35.433Z,97499.78
2022-11-20T00:13:37.861Z,97498.41
2022-11-20T00:18:40.387Z,97497.81
2022-11-20T00:23:43.950Z,97493.69
2022-11-20T00:28:53.971Z,97495.66
2022-11-20T00:33:56.583Z,97501.81
2022-11-20T00:39:00.033Z,97489.78
2022-11-20T00:44:02.598Z,97495.16
2022-11-20T00:49:05.032Z,97492.56
2022-11-20T00:54:07.474Z,97491.75
2022-11-20T00:59:10.985Z,97490.63
2022-11-20T01:04:13.700Z,97492.38
2022-11-20T01:09:16.511Z,97487.66
2022-11-20T01:14:20.987Z,97495.56
2022-11-20T01:19:27.089Z,97497.34
2022-11-20T01:24:29.446Z,97501.56
2022-11-20T01:29:31.835Z,97506.59
2022-11-20T01:34:34.285Z,97507.34
2022-11-20T01:39:36.701Z,97513.28
2022-11-20T01:44:56.025Z,97510.66
2022-11-20T01:50:10.842Z,97508.38
2022-11-20T01:55:27.108Z,97514.56
2022-11-20T02:00:29.566Z,97506.66
2022-11-20T02:06:00.760Z,97516.97
2022-11-20T02:11:03.223Z,97518.50
2022-11-20T02:16:09.243Z,97523.38
2022-11-20T02:21:25.338Z,97513.59
2022-11-20T02:26:30.696Z,97517.44
2022-11-20T02:31:39.014Z,97523.75
2022-11-20T02:36:43.717Z,97520.84
2022-11-20T02:41:46.614Z,97518.66
2022-11-20T02:46:49.026Z,97517.53
2022-11-20T02:51:53.662Z,97515.63
2022-11-20T02:56:56.033Z,97514.44
2022-11-20T03:01:58.376Z,97522.50
2022-11-20T03:07:02.191Z,97526.31
2022-11-20T03:12:04.918Z,97520.88
2022-11-20T03:17:07.347Z,97518.28
2022-11-20T03:22:10.161Z,97508.69
2022-11-20T03:27:16.331Z,97511.78
2022-11-20T03:32:19.083Z,97506.41
2022-11-20T03:37:24.563Z,97500.31
2022-11-20T03:42:45.605Z,97503.47
2022-11-20T03:47:48.391Z,97504.38
2022-11-20T03:52:53.757Z,97493.63
2022-11-20T03:57:56.216Z,97492.91
2022-11-20T04:03:02.502Z,97498.38
2022-11-20T04:08:05.566Z,97498.44
2022-11-20T04:13:09.807Z,97491.50
2022-11-20T04:18:12.160Z,97494.63
2022-11-20T04:23:14.771Z,97489.25
2022-11-20T04:28:17.731Z,97487.66
2022-11-20T04:33:20.099Z,97483.44
2022-11-20T04:38:25.608Z,97480.66
2022-11-20T04:43:28.474Z,97496.78
2022-11-20T04:48:31.698Z,97485.56
2022-11-20T04:53:34.474Z,97496.03
2022-11-20T04:58:37.243Z,97483.72
2022-11-20T05:03:42.474Z,97484.53
2022-11-20T05:08:45.596Z,97480.56
2022-11-20T05:13:51.922Z,97483.53
2022-11-20T05:18:55.807Z,97481.19
2022-11-20T05:23:58.221Z,97474.91
2022-11-20T05:29:01.839Z,97475.69
2022-11-20T05:34:04.461Z,97482.19
2022-11-20T05:39:07.111Z,97487.22
2022-11-20T05:44:12.584Z,97484.84
2022-11-20T05:49:15.464Z,97482.84
2022-11-20T05:54:18.233Z,97484.69
2022-11-20T05:59:20.991Z,97480.09
2022-11-20T06:04:23.683Z,97485.44
2022-11-20T06:09:31.442Z,97484.66
2022-11-20T06:14:34.129Z,97484.97
2022-11-20T06:19:36.611Z,97482.25
2022-11-20T06:24:39.017Z,97482.19
2022-11-20T06:29:41.423Z,97473.72
2022-11-20T06:34:43.824Z,97467.94
2022-11-20T06:39:46.722Z,97465.63
2022-11-20T06:44:49.270Z,97460.66
2022-11-20T06:49:51.639Z,97460.63
2022-11-20T06:54:56.740Z,97471.41
2022-11-20T06:59:59.174Z,97479.84
2022-11-20T07:05:01.606Z,97476.03
2022-11-20T07:10:04.351Z,97488.31
2022-11-20T07:15:07.355Z,97477.50
2022-11-20T07:20:10.412Z,97485.16
2022-11-20T07:25:12.843Z,97485.88
2022-11-20T07:30:19.051Z,97489.66
2022-11-20T07:35:21.902Z,97495.50
2022-11-20T07:40:24.314Z,97498.94
2022-11-20T07:45:27.958Z,97492.28
2022-11-20T07:50:30.612Z,97499.19
2022-11-20T07:55:33.671Z,97497.13
2022-11-20T08:00:36.336Z,97503.84
2022-11-20T08:05:38.859Z,97507.97
2022-11-20T08:10:44.375Z,97515.59
2022-11-20T08:15:51.839Z,97517.13
2022-11-20T08:20:54.358Z,97514.22
2022-11-20T08:25:59.480Z,97518.72
2022-11-20T08:31:05.606Z,97526.34
2022-11-20T08:36:08.462Z,97518.88
2022-11-20T08:41:26.921Z,97523.47
2022-11-20T08:46:44.814Z,97527.16
2022-11-20T08:51:50.598Z,97525.19
2022-11-20T08:56:53.469Z,97523.16
2022-11-20T09:01:55.997Z,97533.50
2022-11-20T09:07:00.926Z,97533.75
2022-11-20T09:12:04.816Z,97544.19
2022-11-20T09:17:14.626Z,97548.53
2022-11-20T09:22:19.899Z,97550.81
2022-11-20T09:27:22.658Z,97556.22
2022-11-20T09:32:25.175Z,97551.69
2022-11-20T09:37:27.787Z,97560.03
2022-11-20T09:42:42.118Z,97565.44
2022-11-20T09:48:15.036Z,97570.63
2022-11-20T09:53:17.730Z,97572.69
2022-11-20T09:58:52.110Z,97576.34
2022-11-20T10:04:16.389Z,97566.44
2022-11-20T10:09:33.317Z,97560.72
2022-11-20T10:14:47.830Z,97569.50
2022-11-20T10:20:17.455Z,97579.50
2022-11-20T10:25:22.038Z,97587.97
2022-11-20T10:30:26.341Z,97589.97
2022-11-20T10:35:50.193Z,97589.97
2022-11-20T10:41:22.940Z,97597.94
2022-11-20T10:46:26.580Z,97586.41
2022-11-20T10:51:47.409Z,97583.03
2022-11-20T10:56:53.698Z,97585.66
2022-11-20T11:01:56.211Z,97577.50
2022-11-20T11:07:21.518Z,97568.56
2022-11-20T11:12:26.937Z,97573.91
2022-11-20T11:17:32.154Z,97560.03
2022-11-20T11:22:46.191Z,97542.81
2022-11-20T11:27:50.319Z,97530.63
2022-11-20T11:33:03.440Z,97528.47
2022-11-20T11:38:12.305Z,97522.59
2022-11-20T11:43:49.765Z,97505.38
2022-11-20T11:49:02.342Z,97503.63
2022-11-20T11:54:16.503Z,97497.81
2022-11-20T11:59:29.938Z,97488.44
2022-11-20T12:04:45.792Z,97490.31
2022-11-20T12:09:53.122Z,97490.81
2022-11-20T12:15:00.767Z,97493.06
2022-11-20T12:20:04.238Z,97475.34
2022-11-20T12:25:45.525Z,97472.34
2022-11-20T12:31:53.989Z,97467.41
2022-11-20T12:37:45.482Z,97470.59
2022-11-20T12:43:20.873Z,97473.03
2022-11-20T12:48:50.754Z,97468.75
2022-11-20T12:54:01.085Z,97476.91
2022-11-20T12:59:29.598Z,97473.09
2022-11-20T13:04:37.563Z,97476.41
2022-11-20T13:09:46.930Z,97473.97
2022-11-20T13:15:17.360Z,97488.78
2022-11-20T13:20:21.239Z,97474.59
2022-11-20T13:25:33.554Z,97462.88
2022-11-20T13:30:37.559Z,97452.56
2022-11-20T13:35:44.322Z,97461.63
2022-11-20T13:41:25.925Z,97459.94
2022-11-20T13:46:44.418Z,97464.03
2022-11-20T13:51:54.569Z,97462.19
2022-11-20T13:57:00.099Z,97466.22
2022-11-20T14:02:14.128Z,97459.72
2022-11-20T14:07:18.999Z,97455.06
2022-11-20T14:12:29.717Z,97454.03
2022-11-20T14:17:36.608Z,97453.72
2022-11-20T14:22:39.003Z,97448.75
2022-11-20T14:27:53.964Z,97450.44
2022-11-20T14:33:02.244Z,97451.72
2022-11-20T14:38:05.283Z,97443.47
2022-11-20T14:43:29.415Z,97442.69
2022-11-20T14:48:42.093Z,97444.91
2022-11-20T14:53:44.886Z,97432.72
2022-11-20T14:58:59.838Z,97412.63
2022-11-20T15:04:07.265Z,97399.53
2022-11-20T15:09:17.217Z,97402.81
2022-11-20T15:14:19.973Z,97395.63
2022-11-20T15:19:24.642Z,97386.81
2022-11-20T15:24:30.047Z,97384.09
2022-11-20T15:29:33.158Z,97378.03
2022-11-20T15:34:35.653Z,97380.16
2022-11-20T15:39:38.102Z,97394.94
2022-11-20T15:44:40.535Z,97374.56
2022-11-20T15:49:42.998Z,97372.66
2022-11-20T15:54:45.697Z,97368.22
2022-11-20T15:59:48.677Z,97369.94
2022-11-20T16:04:51.125Z,97370.75
2022-11-20T16:09:53.599Z,97363.28
2022-11-20T16:15:14.498Z,97360.84
2022-11-20T16:20:18.030Z,97368.06
2022-11-20T16:25:23.258Z,97358.16
2022-11-20T16:30:27.422Z,97351.91
2022-11-20T16:35:32.108Z,97354.53
2022-11-20T16:40:35.302Z,97350.97
2022-11-20T16:45:47.056Z,97343.41
2022-11-20T16:50:53.926Z,97343.69
2022-11-20T16:55:56.535Z,97336.59
2022-11-20T17:01:05.207Z,97334.75
2022-11-20T17:06:29.488Z,97324.38
2022-11-20T17:11:33.607Z,97320.06
2022-11-20T17:16:37.337Z,97325.16
2022-11-20T17:21:40.022Z,97316.19
2022-11-20T17:26:44.365Z,97322.78
2022-11-20T17:31:48.754Z,97316.00
2022-11-20T17:36:51.286Z,97309.56
2022-11-20T17:42:12.345Z,97310.97
2022-11-20T17:47:14.933Z,97307.72
2022-11-20T17:52:17.728Z,97303.97
2022-11-20T17:57:39.076Z,97303.66
2022-11-20T18:02:42.985Z,97284.22
2022-11-20T18:07:45.664Z,97278.13
2022-11-20T18:12:48.515Z,97264.59
2022-11-20T18:17:50.905Z,97270.84
2022-11-20T18:22:53.283Z,97261.44
2022-11-20T18:27:56.576Z,97250.03
2022-11-20T18:32:59.009Z,97246.31
2022-11-20T18:38:01.415Z,97240.19
2022-11-20T18:43:22.459Z,97235.16
2022-11-20T18:48:24.846Z,97234.66
2022-11-20T18:53:27.330Z,97239.56
2022-11-20T18:58:32.495Z,97236.69
2022-11-20T19:03:35.356Z,97227.50
2022-11-20T19:08:37.833Z,97215.66
2022-11-20T19:13:43.618Z,97222.56
2022-11-20T19:18:48.434Z,97230.78
2022-11-20T19:23:53.652Z,97222.53
2022-11-20T19:28:56.635Z,97214.53
2022-11-20T19:34:02.591Z,97206.31
2022-11-20T19:39:07.740Z,97209.22
2022-11-20T19:44:15.522Z,97197.50
2022-11-20T19:49:18.363Z,97191.34
2022-11-20T19:54:20.822Z,97199.44
2022-11-20T19:59:23.430Z,97185.22
2022-11-20T20:04:26.096Z,97187.19
2022-11-20T20:09:29.889Z,97187.75
2022-11-20T20:14:32.633Z,97184.03
2022-11-20T20:19:36.119Z,97184.66
2022-11-20T20:24:38.596Z,97184.28
2022-11-20T20:29:41.014Z,97188.44
2022-11-20T20:34:43.447Z,97198.94
2022-11-20T20:39:46.271Z,97190.09
2022-11-20T20:45:06.929Z,97199.97
2022-11-20T20:50:11.787Z,97211.22
2022-11-20T20:55:14.565Z,97202.44
2022-11-20T21:00:17.585Z,97213.56
2022-11-20T21:05:20.180Z,97223.66
2022-11-20T21:10:23.880Z,97208.94
2022-11-20T21:15:26.661Z,97221.66
2022-11-20T21:20:48.255Z,97226.22
2022-11-20T21:25:50.866Z,97225.16
2022-11-20T21:30:53.369Z,97235.63
2022-11-20T21:35:58.358Z,97212.63
2022-11-20T21:41:01.587Z,97216.59
2022-11-20T21:46:15.533Z,97207.38
2022-11-20T21:51:20.903Z,97217.41
2022-11-20T21:56:25.286Z,97211.22
2022-11-20T22:01:29.839Z,97219.66
2022-11-20T22:06:34.055Z,97224.25
2022-11-20T22:11:36.453Z,97226.94
2022-11-20T22:16:38.909Z,97234.31
2022-11-20T22:21:42.033Z,97226.63
2022-11-20T22:26:45.101Z,97218.97
2022-11-20T22:31:48.125Z,97228.94
2022-11-20T22:36:50.662Z,97228.13
2022-11-20T22:41:53.072Z,97220.72
2022-11-20T22:46:55.517Z,97222.59
2022-11-20T22:51:57.945Z,97229.63
2022-11-20T22:57:00.326Z,97227.34
2022-11-20T23:02:04.187Z,97235.19
2022-11-20T23:07:06.694Z,97244.84
2022-11-20T23:12:09.163Z,97239.47
2022-11-20T23:17:11.719Z,97234.00
2022-11-20T23:22:14.173Z,97230.88
2022-11-20T23:27:19.628Z,97224.91
2022-11-20T23:32:22.368Z,97234.63
2022-11-20T23:37:24.955Z,97238.59
2022-11-20T23:42:27.373Z,97240.91
2022-11-20T23:47:29.786Z,97246.31
2022-11-20T23:52:32.165Z,97243.91
2022-11-20T23:57:34.636Z,97243.88
